Time;durP1;ratioP1;P1;durP2;ratioP2;P2;SDS_P1;SDS_P2;PMS_P1;PMS_P2;Temp;Humidity;BMP_temperature;BMP_pressure;BME280_temperature;BME280_humidity;BME280_pressure;Samples;Min_cycle;Max_cycle;Signal;HPM_P1;HPM_P2
2022/03/02 00:01:20;;;;;;;4.10;3.20;;;17.10;39.90;;;;;;5117859;27;47311;-81
2022/03/02 00:03:47;;;;;;;3.35;2.22;;;17.10;39.80;;;;;;5117615;27;45748;-80
2022/03/02 00:06:15;;;;;;;4.90;3.10;;;17.10;40.00;;;;;;5120779;27;45171;-80
2022/03/02 00:08:42;;;;;;;5.43;3.00;;;17.20;40.30;;;;;;5123189;27;45108;-80
2022/03/02 00:11:11;;;;;;;4.28;2.42;;;17.20;40.10;;;;;;5127712;27;45202;-80
2022/03/02 00:13:38;;;;;;;4.82;3.00;;;17.10;40.00;;;;;;5128551;27;45355;-80
2022/03/02 00:16:05;;;;;;;4.28;3.08;;;17.20;39.80;;;;;;5119003;27;45254;-80
2022/03/02 00:18:33;;;;;;;4.47;2.83;;;17.20;39.80;;;;;;5115504;27;45235;-80
2022/03/02 00:21:00;;;;;;;4.25;2.80;;;17.20;39.70;;;;;;5114966;27;47100;-80
2022/03/02 00:23:27;;;;;;;4.30;2.60;;;17.20;39.30;;;;;;5105781;27;45131;-80
2022/03/02 00:25:54;;;;;;;4.68;3.05;;;17.20;39.20;;;;;;5125853;27;45210;-81
2022/03/02 00:28:21;;;;;;;4.93;3.33;;;17.20;39.20;;;;;;5128958;27;45509;-80
2022/03/02 00:30:47;;;;;;;4.80;2.97;;;17.10;39.10;;;;;;5124488;27;46233;-80
2022/03/02 00:33:14;;;;;;;4.50;3.00;;;17.10;39.10;;;;;;5115801;27;45843;-80
2022/03/02 00:35:43;;;;;;;4.25;2.60;;;17.10;39.20;;;;;;5125359;27;45236;-80
2022/03/02 00:38:10;;;;;;;4.20;2.70;;;17.10;39.10;;;;;;5116714;27;46585;-81
2022/03/02 00:40:38;;;;;;;4.40;2.95;;;17.10;39.30;;;;;;5127003;27;45384;-81
2022/03/02 00:43:06;;;;;;;4.07;2.67;;;17.10;40.70;;;;;;5127559;27;45165;-80
2022/03/02 00:45:33;;;;;;;4.25;2.83;;;17.10;39.30;;;;;;5124828;27;45339;-81
2022/03/02 00:48:00;;;;;;;4.80;2.95;;;17.10;39.20;;;;;;5113458;27;45338;-81
2022/03/02 00:50:28;;;;;;;4.00;2.60;;;17.10;39.00;;;;;;5125758;27;47738;-80
2022/03/02 00:52:56;;;;;;;3.92;2.45;;;17.10;39.20;;;;;;5127416;27;45339;-81
2022/03/02 00:55:24;;;;;;;3.40;2.60;;;17.10;39.80;;;;;;5127658;27;45232;-81
2022/03/02 00:57:51;;;;;;;3.78;2.47;;;17.10;39.10;;;;;;5122213;27;45515;-80
2022/03/02 01:00:18;;;;;;;3.88;2.55;;;17.10;40.20;;;;;;5122212;27;47909;-81
2022/03/02 01:02:46;;;;;;;3.20;2.30;;;17.10;39.20;;;;;;5110924;27;45237;-80
2022/03/02 01:05:14;;;;;;;3.95;2.58;;;17.10;39.50;;;;;;5124988;27;45286;-80
2022/03/02 01:07:41;;;;;;;4.28;2.47;;;17.20;39.60;;;;;;5111609;27;45317;-80
2022/03/02 01:10:10;;;;;;;5.90;3.08;;;17.20;40.70;;;;;;5106781;27;47941;-81
2022/03/02 01:12:39;;;;;;;3.65;2.50;;;17.10;38.80;;;;;;5113612;27;45384;-80
2022/03/02 01:15:07;;;;;;;3.35;2.40;;;17.10;38.80;;;;;;5111479;27;45266;-80
2022/03/02 01:17:35;;;;;;;3.85;2.38;;;17.10;38.60;;;;;;5125619;27;45346;-80
2022/03/02 01:20:02;;;;;;;5.22;2.95;;;17.10;38.50;;;;;;5126849;27;48244;-80
2022/03/02 01:22:29;;;;;;;3.90;2.40;;;17.10;38.40;;;;;;5114138;27;45360;-80
2022/03/02 01:24:56;;;;;;;2.97;2.20;;;17.10;38.70;;;;;;5112055;27;45168;-80
2022/03/02 01:27:25;;;;;;;5.25;2.72;;;17.10;38.80;;;;;;5119547;27;45339;-80
2022/03/02 01:29:52;;;;;;;4.40;2.78;;;17.10;38.50;;;;;;5128059;27;48395;-80
2022/03/02 01:32:20;;;;;;;4.53;2.75;;;17.10;38.50;;;;;;5128733;27;45408;-80
2022/03/02 01:34:47;;;;;;;5.03;2.65;;;17.10;38.80;;;;;;5132065;27;45150;-80
2022/03/02 01:37:14;;;;;;;4.00;2.70;;;17.10;39.60;;;;;;5127845;27;45479;-80
2022/03/02 01:39:42;;;;;;;4.22;2.70;;;17.10;38.80;;;;;;5132522;27;47086;-81
2022/03/02 01:42:09;;;;;;;3.88;2.55;;;17.10;39.10;;;;;;5119721;27;45152;-80
2022/03/02 01:44:38;;;;;;;3.15;2.33;;;17.10;38.50;;;;;;5123654;27;46430;-80
2022/03/02 01:47:06;;;;;;;4.90;2.95;;;17.10;39.90;;;;;;5126002;27;45397;-81
2022/03/02 01:49:34;;;;;;;3.42;2.40;;;17.10;38.80;;;;;;5122318;27;47058;-80
2022/03/02 01:52:02;;;;;;;2.60;2.33;;;17.10;38.90;;;;;;5128404;27;45270;-81
2022/03/02 01:54:29;;;;;;;5.00;2.38;;;17.10;39.00;;;;;;5126975;27;45190;-80
2022/03/02 01:56:56;;;;;;;4.50;2.70;;;17.10;38.70;;;;;;5124218;27;45765;-80
2022/03/02 01:59:23;;;;;;;3.75;2.60;;;17.10;38.60;;;;;;5123892;27;47122;-81
2022/03/02 02:01:51;;;;;;;5.50;3.10;;;17.10;38.50;;;;;;5129417;27;45286;-81
2022/03/02 02:04:18;;;;;;;14.15;3.22;;;17.10;37.60;;;;;;5126103;27;45385;-81
2022/03/02 02:06:45;;;;;;;4.78;2.70;;;17.10;36.60;;;;;;5117853;27;45324;-81
2022/03/02 02:09:11;;;;;;;4.40;3.00;;;17.10;36.50;;;;;;5116039;27;46203;-81
2022/03/02 02:11:38;;;;;;;3.78;2.67;;;17.10;36.10;;;;;;5120256;27;45273;-81
2022/03/02 02:14:05;;;;;;;4.03;2.70;;;17.00;36.50;;;;;;5124592;27;45277;-82
2022/03/02 02:16:32;;;;;;;5.88;3.22;;;17.00;35.80;;;;;;5115610;27;45319;-81
2022/03/02 02:19:00;;;;;;;5.10;3.00;;;17.00;35.90;;;;;;5130491;27;46389;-81
2022/03/02 02:21:29;;;;;;;4.78;3.10;;;17.00;36.00;;;;;;5123137;27;45562;-81
2022/03/02 02:23:56;;;;;;;4.53;3.00;;;17.00;35.90;;;;;;5111350;27;45287;-81
2022/03/02 02:26:25;;;;;;;4.85;2.90;;;17.00;37.40;;;;;;5121798;27;45376;-80
2022/03/02 02:28:52;;;;;;;4.35;2.83;;;17.00;38.00;;;;;;5125474;27;48018;-80
2022/03/02 02:31:19;;;;;;;4.07;2.55;;;17.00;38.60;;;;;;5125692;27;46294;-80
2022/03/02 02:33:47;;;;;;;3.92;2.60;;;17.00;38.50;;;;;;5119844;27;45286;-80
2022/03/02 02:36:14;;;;;;;5.82;3.03;;;17.00;38.70;;;;;;5126888;27;47022;-80
2022/03/02 02:38:43;;;;;;;4.35;2.88;;;17.10;39.00;;;;;;5128399;27;46159;-80
2022/03/02 02:41:10;;;;;;;3.78;2.60;;;17.00;39.00;;;;;;5122636;27;45638;-80
2022/03/02 02:43:37;;;;;;;4.25;2.88;;;17.10;38.90;;;;;;5124723;27;45233;-80
2022/03/02 02:46:04;;;;;;;3.50;2.55;;;17.10;38.70;;;;;;5121284;27;45387;-80
2022/03/02 02:48:32;;;;;;;4.30;2.95;;;17.10;38.80;;;;;;5124924;27;45298;-79
2022/03/02 02:50:59;;;;;;;4.20;2.65;;;17.10;38.60;;;;;;5132636;27;45447;-79
2022/03/02 02:53:26;;;;;;;4.45;2.75;;;17.10;38.90;;;;;;5127862;27;45269;-79
2022/03/02 02:55:54;;;;;;;3.45;2.40;;;17.10;39.00;;;;;;5118633;27;45288;-79
2022/03/02 02:58:21;;;;;;;3.22;2.22;;;17.00;38.80;;;;;;5109382;27;45797;-79
2022/03/02 03:00:50;;;;;;;4.88;2.80;;;17.10;38.80;;;;;;5108705;27;45115;-80
2022/03/02 03:03:17;;;;;;;4.63;2.70;;;17.00;38.70;;;;;;5118835;27;45159;-80
2022/03/02 03:05:45;;;;;;;5.32;3.00;;;17.10;38.70;;;;;;5128270;27;45345;-80
2022/03/02 03:08:13;;;;;;;3.38;2.33;;;17.10;38.60;;;;;;5119283;27;48188;-80
2022/03/02 03:10:42;;;;;;;4.30;2.65;;;17.10;38.60;;;;;;5124090;27;45258;-80
2022/03/02 03:13:10;;;;;;;4.60;2.38;;;17.10;38.80;;;;;;5122939;27;45284;-80
2022/03/02 03:15:38;;;;;;;4.15;2.55;;;17.10;38.60;;;;;;5120630;27;45475;-80
2022/03/02 03:18:06;;;;;;;5.65;3.05;;;17.10;38.50;;;;;;5116030;27;46394;-79
2022/03/02 03:20:35;;;;;;;3.88;2.40;;;17.10;38.80;;;;;;5112781;27;45204;-80
2022/03/02 03:23:02;;;;;;;4.07;2.47;;;17.10;38.80;;;;;;5129734;27;45236;-80
2022/03/02 03:25:30;;;;;;;3.42;2.20;;;17.10;38.70;;;;;;5111502;27;45336;-80
2022/03/02 03:27:57;;;;;;;4.30;2.67;;;17.10;38.70;;;;;;5128769;27;45455;-80
2022/03/02 03:30:27;;;;;;;3.60;2.40;;;17.10;38.80;;;;;;5120150;27;45226;-80
2022/03/02 03:32:54;;;;;;;3.90;2.45;;;17.10;38.50;;;;;;5125868;27;45233;-80
2022/03/02 03:35:22;;;;;;;4.43;2.75;;;17.10;38.10;;;;;;5122687;27;45151;-80
2022/03/02 03:37:49;;;;;;;4.07;2.78;;;17.10;38.20;;;;;;5128850;27;46536;-80
2022/03/02 03:40:19;;;;;;;4.05;2.30;;;17.10;38.10;;;;;;5126057;27;45533;-80
2022/03/02 03:42:46;;;;;;;4.50;2.70;;;17.10;38.00;;;;;;5128374;27;45508;-79
2022/03/02 03:45:14;;;;;;;3.90;2.60;;;17.10;38.10;;;;;;5125341;27;45197;-80
2022/03/02 03:47:43;;;;;;;2.85;2.08;;;17.10;38.20;;;;;;5109849;27;47949;-79
2022/03/02 03:50:12;;;;;;;4.72;2.50;;;17.10;38.30;;;;;;5127670;27;45394;-80
2022/03/02 03:52:39;;;;;;;4.30;2.60;;;17.10;38.40;;;;;;5129438;27;45291;-80
2022/03/02 03:55:08;;;;;;;4.05;2.58;;;17.10;38.10;;;;;;5126401;27;45268;-80
2022/03/02 03:57:35;;;;;;;4.25;2.50;;;17.10;38.30;;;;;;5119182;27;47326;-80
2022/03/02 04:00:02;;;;;;;3.65;2.40;;;17.10;38.20;;;;;;5126018;27;45273;-80
2022/03/02 04:02:29;;;;;;;3.70;2.30;;;17.10;38.30;;;;;;5116642;27;45901;-80
2022/03/02 04:04:57;;;;;;;4.22;2.47;;;17.10;38.30;;;;;;5125424;27;45197;-80
2022/03/02 04:07:24;;;;;;;5.32;2.55;;;17.10;38.50;;;;;;5116550;27;47000;-80
2022/03/02 04:09:51;;;;;;;4.55;2.90;;;17.10;38.60;;;;;;5123397;27;46339;-81
2022/03/02 04:12:18;;;;;;;3.92;2.65;;;17.10;37.30;;;;;;5127219;27;45323;-81
2022/03/02 04:14:45;;;;;;;4.30;2.80;;;17.10;37.40;;;;;;5114686;27;45399;-80
2022/03/02 04:17:12;;;;;;;4.15;2.80;;;17.10;36.90;;;;;;5122973;27;46269;-80
2022/03/02 04:19:39;;;;;;;4.97;3.10;;;17.10;36.00;;;;;;5122037;27;45224;-81
2022/03/02 04:22:08;;;;;;;3.88;2.72;;;17.10;35.40;;;;;;5116483;27;45404;-80
2022/03/02 04:24:34;;;;;;;4.55;3.08;;;17.10;35.40;;;;;;5124627;27;45420;-81
2022/03/02 04:27:01;;;;;;;6.28;3.00;;;17.10;35.10;;;;;;5126709;27;46337;-81
2022/03/02 04:29:29;;;;;;;4.20;3.00;;;17.00;35.00;;;;;;5126527;27;45830;-81
2022/03/02 04:31:56;;;;;;;4.32;2.90;;;17.00;35.20;;;;;;5120189;27;45343;-80
2022/03/02 04:34:23;;;;;;;4.05;2.80;;;17.00;35.60;;;;;;5112322;27;45113;-80
2022/03/02 04:36:50;;;;;;;4.60;2.67;;;17.00;35.20;;;;;;5122433;27;47381;-81
2022/03/02 04:39:19;;;;;;;6.13;3.03;;;17.00;35.00;;;;;;5116062;27;45534;-80
2022/03/02 04:41:46;;;;;;;5.00;2.97;;;17.00;34.90;;;;;;5124326;27;45215;-81
2022/03/02 04:44:13;;;;;;;3.70;2.80;;;16.90;35.00;;;;;;5128303;27;45547;-81
2022/03/02 04:46:39;;;;;;;3.88;2.75;;;16.90;35.20;;;;;;5121030;27;47517;-80
2022/03/02 04:49:12;;;;;;;3.95;2.67;;;16.90;34.90;;;;;;5125187;27;45322;-80
2022/03/02 04:51:39;;;;;;;5.55;2.53;;;17.00;34.90;;;;;;5117165;27;45214;-80
2022/03/02 04:54:07;;;;;;;4.90;3.17;;;17.00;34.80;;;;;;5123834;27;45436;-81
2022/03/02 04:56:36;;;;;;;4.78;3.00;;;17.00;34.90;;;;;;5125675;27;47770;-80
2022/03/02 04:59:04;;;;;;;4.93;3.10;;;17.00;34.70;;;;;;5120475;27;45161;-81
2022/03/02 05:01:31;;;;;;;4.45;2.88;;;17.00;35.30;;;;;;5120378;27;45431;-80
2022/03/02 05:03:58;;;;;;;4.28;2.78;;;17.00;34.90;;;;;;5126593;27;45175;-80
2022/03/02 05:06:25;;;;;;;4.85;2.80;;;17.00;35.10;;;;;;5126562;27;46320;-80
2022/03/02 05:08:52;;;;;;;3.70;2.50;;;17.00;34.70;;;;;;5128920;27;45240;-80
2022/03/02 05:11:19;;;;;;;4.45;3.13;;;17.00;34.60;;;;;;5128562;27;45415;-80
2022/03/02 05:13:47;;;;;;;5.00;3.17;;;16.90;35.90;;;;;;5136465;27;45219;-80
2022/03/02 05:16:14;;;;;;;5.53;3.30;;;16.90;34.50;;;;;;5125694;27;48173;-80
2022/03/02 05:18:44;;;;;;;4.35;2.88;;;16.90;34.70;;;;;;5113724;27;45442;-80
2022/03/02 05:21:13;;;;;;;4.32;2.97;;;16.90;35.10;;;;;;5121480;27;45388;-80
2022/03/02 05:23:40;;;;;;;5.28;3.00;;;16.90;35.10;;;;;;5126062;27;45205;-80
2022/03/02 05:26:07;;;;;;;4.88;3.10;;;16.90;34.50;;;;;;5114243;27;46306;-80
2022/03/02 05:28:34;;;;;;;6.25;3.35;;;16.90;34.80;;;;;;5120192;27;45180;-81
2022/03/02 05:31:02;;;;;;;4.65;2.92;;;16.80;34.40;;;;;;5126079;27;45181;-82
2022/03/02 05:33:29;;;;;;;4.88;3.10;;;16.80;34.50;;;;;;5108391;27;45397;-81
2022/03/02 05:35:56;;;;;;;5.25;3.05;;;16.80;34.70;;;;;;5124487;27;48249;-82
2022/03/02 05:38:23;;;;;;;6.47;3.00;;;16.80;35.40;;;;;;5125108;27;45463;-82
2022/03/02 05:40:50;;;;;;;4.82;3.20;;;16.80;35.10;;;;;;5127567;27;45179;-81
2022/03/02 05:43:18;;;;;;;5.88;3.45;;;16.90;35.50;;;;;;5122353;27;45552;-80
2022/03/02 05:45:45;;;;;;;4.93;3.42;;;16.90;35.00;;;;;;5125082;27;46509;-83
2022/03/02 05:48:14;;;;;;;4.70;3.15;;;16.90;34.80;;;;;;5124272;27;45340;-82
2022/03/02 05:50:41;;;;;;;6.25;3.50;;;16.80;35.30;;;;;;5122345;27;45099;-82
2022/03/02 05:53:07;;;;;;;6.35;3.50;;;16.80;35.80;;;;;;5127810;27;45148;-82
2022/03/02 05:55:34;;;;;;;5.40;3.33;;;16.80;35.20;;;;;;5127289;27;46530;-83
2022/03/02 05:58:01;;;;;;;4.82;2.97;;;16.80;35.20;;;;;;5114580;27;45198;-82
2022/03/02 06:00:28;;;;;;;4.78;3.10;;;16.80;35.30;;;;;;5124584;27;45358;-82
2022/03/02 06:02:55;;;;;;;5.20;3.35;;;16.80;35.40;;;;;;5130780;27;45266;-82
2022/03/02 06:05:23;;;;;;;5.05;3.10;;;16.80;35.40;;;;;;5128295;27;45433;-80
2022/03/02 06:07:50;;;;;;;6.47;3.30;;;16.80;35.50;;;;;;5123561;27;45490;-80
2022/03/02 06:10:18;;;;;;;5.18;3.35;;;16.70;35.20;;;;;;5129697;27;45246;-80
2022/03/02 06:12:46;;;;;;;4.93;3.35;;;16.70;34.80;;;;;;5122280;27;45160;-81
2022/03/02 06:15:13;;;;;;;4.45;3.03;;;16.70;34.70;;;;;;5127857;27;47339;-81
2022/03/02 06:17:41;;;;;;;4.20;2.97;;;16.70;34.80;;;;;;5128018;27;45251;-81
2022/03/02 06:20:10;;;;;;;5.97;3.70;;;16.70;34.70;;;;;;5121551;27;45349;-81
2022/03/02 06:22:38;;;;;;;5.55;3.55;;;16.60;34.50;;;;;;5128206;27;45496;-81
2022/03/02 06:25:07;;;;;;;5.15;3.35;;;16.70;34.40;;;;;;5128986;27;46611;-81
2022/03/02 06:27:34;;;;;;;4.18;3.10;;;16.70;34.40;;;;;;5125208;27;45196;-81
2022/03/02 06:30:01;;;;;;;5.13;3.40;;;16.70;34.20;;;;;;5129469;27;45358;-80
2022/03/02 06:32:29;;;;;;;4.90;3.45;;;16.70;34.10;;;;;;5120841;27;45386;-81
2022/03/02 06:34:58;;;;;;;5.80;3.10;;;16.70;34.40;;;;;;5121585;27;47432;-84
2022/03/02 06:37:26;;;;;;;5.15;3.22;;;16.70;35.10;;;;;;5124308;27;45306;-85
2022/03/02 06:39:54;;;;;;;4.95;3.00;;;16.70;34.60;;;;;;5117451;27;45409;-84
2022/03/02 06:42:24;;;;;;;4.78;2.88;;;16.80;35.60;;;;;;5125130;27;45525;-85
2022/03/02 06:44:57;;;;;;;4.63;3.13;;;16.80;36.60;;;;;;5125212;27;47067;-82
2022/03/02 06:47:27;;;;;;;5.03;3.03;;;16.80;37.20;;;;;;5128761;27;45236;-82
2022/03/02 06:50:05;;;;;;;5.88;3.20;;;16.80;37.70;;;;;;5128605;27;45171;-82
2022/03/02 06:52:34;;;;;;;4.43;3.10;;;16.80;38.10;;;;;;5131026;27;45255;-82
2022/03/02 06:55:06;;;;;;;3.92;3.08;;;16.80;38.50;;;;;;5118908;27;47449;-82
2022/03/02 06:57:33;;;;;;;6.93;3.20;;;16.80;38.60;;;;;;5123251;27;45766;-81
2022/03/02 07:00:02;;;;;;;4.03;2.95;;;16.90;40.20;;;;;;5124791;27;45108;-82
2022/03/02 07:02:35;;;;;;;3.22;2.58;;;16.90;39.10;;;;;;5128586;27;46372;-81
2022/03/02 07:05:05;;;;;;;4.45;3.05;;;16.90;39.10;;;;;;5130791;27;45253;-83
2022/03/02 07:07:32;;;;;;;4.00;2.30;;;16.90;39.20;;;;;;5118956;27;45262;-83
2022/03/02 07:10:00;;;;;;;4.82;2.92;;;16.90;39.30;;;;;;5120805;27;45268;-82
2022/03/02 07:12:30;;;;;;;4.32;3.15;;;16.90;38.30;;;;;;5128870;27;45523;-81
2022/03/02 07:14:58;;;;;;;5.30;3.08;;;16.90;37.30;;;;;;5125796;27;46499;-82
2022/03/02 07:17:26;;;;;;;4.43;3.10;;;17.00;36.90;;;;;;5124407;27;45251;-81
2022/03/02 07:19:54;;;;;;;4.82;2.95;;;17.00;36.70;;;;;;5130183;27;45143;-81
2022/03/02 07:22:22;;;;;;;4.75;3.00;;;17.00;36.60;;;;;;5129672;27;45207;-81
2022/03/02 07:24:53;;;;;;;5.93;3.10;;;17.00;35.90;;;;;;5126423;27;46713;-81
2022/03/02 07:27:22;;;;;;;4.53;2.97;;;17.00;35.80;;;;;;5137439;27;45301;-81
2022/03/02 07:29:53;;;;;;;5.15;2.97;;;17.00;35.30;;;;;;5133706;27;45286;-81
2022/03/02 07:32:25;;;;;;;4.95;3.10;;;17.00;35.10;;;;;;5126669;27;45459;-81
2022/03/02 07:34:58;;;;;;;5.65;3.50;;;17.00;35.10;;;;;;5126589;27;48168;-81
2022/03/02 07:37:27;;;;;;;5.78;3.20;;;16.90;35.20;;;;;;5127524;27;45313;-81
2022/03/02 07:39:55;;;;;;;4.35;3.22;;;16.90;35.00;;;;;;5129875;27;45211;-81
2022/03/02 07:42:22;;;;;;;5.75;3.05;;;16.90;35.00;;;;;;5123418;27;45350;-81
2022/03/02 07:44:51;;;;;;;4.05;2.80;;;16.90;35.00;;;;;;5122564;27;46628;-81
2022/03/02 07:47:19;;;;;;;7.97;3.53;;;16.90;35.00;;;;;;5122397;27;46843;-81
2022/03/02 07:49:47;;;;;;;5.63;3.30;;;16.90;35.00;;;;;;5126396;27;45621;-81
2022/03/02 07:52:15;;;;;;;6.78;3.50;;;16.90;34.70;;;;;;5129130;27;45509;-81
2022/03/02 07:54:44;;;;;;;5.47;3.38;;;16.90;34.40;;;;;;5130216;27;45446;-81
2022/03/02 07:57:13;;;;;;;4.38;3.05;;;16.90;34.50;;;;;;5127109;27;45320;-81
2022/03/02 07:59:41;;;;;;;5.30;3.28;;;16.90;34.70;;;;;;5118651;27;45167;-81
2022/03/02 08:02:12;;;;;;;4.95;3.17;;;16.90;34.60;;;;;;5124313;27;45472;-81
2022/03/02 08:04:41;;;;;;;6.40;3.50;;;16.90;34.50;;;;;;5126739;27;48172;-81
2022/03/02 08:07:10;;;;;;;6.07;3.55;;;17.00;35.20;;;;;;5121617;27;45259;-81
2022/03/02 08:09:37;;;;;;;6.18;3.55;;;17.00;35.00;;;;;;5125375;27;45399;-81
2022/03/02 08:12:07;;;;;;;5.43;2.95;;;17.00;34.40;;;;;;5129040;27;45512;-81
2022/03/02 08:14:34;;;;;;;6.00;3.00;;;17.00;35.00;;;;;;5126893;27;48056;-80
2022/03/02 08:17:02;;;;;;;5.47;3.45;;;17.00;34.20;;;;;;5125451;27;45372;-81
2022/03/02 08:19:31;;;;;;;6.45;3.17;;;17.00;34.20;;;;;;5117612;27;45216;-81
2022/03/02 08:22:03;;;;;;;6.28;3.40;;;17.00;34.10;;;;;;5126986;27;45321;-81
2022/03/02 08:24:31;;;;;;;5.05;3.40;;;16.90;34.20;;;;;;5126084;27;45490;-81
2022/03/02 08:27:00;;;;;;;6.68;3.28;;;16.90;34.30;;;;;;5117805;27;45228;-81
2022/03/02 08:29:30;;;;;;;5.40;3.33;;;16.90;34.30;;;;;;5125395;27;45392;-81
2022/03/02 08:32:00;;;;;;;5.05;3.10;;;16.90;34.30;;;;;;5118638;27;45187;-81
2022/03/02 08:34:27;;;;;;;4.43;3.20;;;16.90;34.30;;;;;;5111910;27;45582;-81
2022/03/02 08:36:57;;;;;;;4.40;2.90;;;16.90;34.00;;;;;;5110807;27;45316;-81
2022/03/02 08:39:25;;;;;;;5.05;3.00;;;16.90;35.50;;;;;;5130187;27;45214;-81
2022/03/02 08:41:52;;;;;;;4.72;2.80;;;16.90;34.90;;;;;;5148689;27;45441;-81
2022/03/02 08:44:20;;;;;;;4.40;3.00;;;16.90;34.40;;;;;;5110640;27;46347;-82
2022/03/02 08:46:47;;;;;;;5.70;3.45;;;17.00;34.40;;;;;;5128955;27;45278;-81
2022/03/02 08:49:15;;;;;;;4.97;3.10;;;17.00;34.10;;;;;;5121142;27;45275;-82
2022/03/02 08:51:42;;;;;;;4.95;3.08;;;17.00;34.20;;;;;;5122996;27;45596;-81
2022/03/02 08:54:13;;;;;;;4.72;2.92;;;17.00;34.10;;;;;;5116041;27;47326;-81
2022/03/02 08:56:41;;;;;;;4.22;2.58;;;17.00;33.80;;;;;;5115161;27;45298;-82
2022/03/02 08:59:12;;;;;;;4.28;2.53;;;17.00;33.40;;;;;;5113808;27;45429;-82
2022/03/02 09:01:42;;;;;;;5.03;3.22;;;17.00;34.10;;;;;;5121358;27;45381;-82
2022/03/02 09:04:15;;;;;;;4.95;3.17;;;17.00;33.30;;;;;;5125738;27;46262;-82
2022/03/02 09:06:42;;;;;;;4.55;2.88;;;17.00;33.30;;;;;;5118805;27;45556;-79
2022/03/02 09:09:11;;;;;;;3.97;3.00;;;17.00;35.10;;;;;;5127247;27;45242;-79
2022/03/02 09:11:39;;;;;;;4.57;3.05;;;17.00;34.20;;;;;;5114806;27;46438;-78
2022/03/02 09:14:07;;;;;;;5.60;3.33;;;17.00;33.70;;;;;;5126673;27;45168;-78
2022/03/02 09:16:37;;;;;;;4.85;2.70;;;17.00;33.40;;;;;;5125268;27;45387;-79
2022/03/02 09:19:05;;;;;;;5.00;3.20;;;17.00;33.60;;;;;;5110692;27;45402;-78
2022/03/02 09:21:33;;;;;;;4.57;2.83;;;17.00;33.70;;;;;;5106814;27;45365;-79
2022/03/02 09:24:00;;;;;;;3.88;2.90;;;17.00;33.50;;;;;;5109762;27;47093;-79
2022/03/02 09:26:28;;;;;;;46.88;4.55;;;17.00;33.90;;;;;;5116251;27;45384;-80
2022/03/02 09:28:55;;;;;;;5.50;2.53;;;17.00;36.30;;;;;;5119179;27;45581;-81
2022/03/02 09:31:23;;;;;;;5.85;2.88;;;17.00;36.60;;;;;;5120317;27;45542;-81
2022/03/02 09:33:55;;;;;;;5.13;2.50;;;17.00;36.60;;;;;;5120009;27;47082;-81
2022/03/02 09:36:24;;;;;;;3.75;2.70;;;17.00;36.60;;;;;;5124071;27;45273;-82
2022/03/02 09:38:52;;;;;;;7.97;2.80;;;17.00;36.30;;;;;;5127440;27;45208;-82
2022/03/02 09:41:28;;;;;;;3.92;2.40;;;17.00;36.00;;;;;;5131902;27;45510;-81
2022/03/02 09:43:57;;;;;;;3.88;2.60;;;17.00;35.70;;;;;;5128839;27;47940;-81
2022/03/02 09:46:33;;;;;;;4.78;2.72;;;17.00;35.80;;;;;;5115564;27;45292;-82
2022/03/02 09:49:06;;;;;;;6.10;2.70;;;17.00;35.20;;;;;;5120425;27;45357;-81
2022/03/02 09:51:34;;;;;;;5.05;2.70;;;17.00;35.00;;;;;;5145073;27;45519;-81
2022/03/02 09:54:03;;;;;;;5.20;2.75;;;17.00;34.30;;;;;;5131201;27;46347;-82
2022/03/02 09:56:32;;;;;;;3.30;2.70;;;17.00;35.20;;;;;;5119302;27;45220;-81
2022/03/02 09:59:01;;;;;;;5.30;2.75;;;17.00;35.70;;;;;;5120487;27;45344;-81
2022/03/02 10:01:33;;;;;;;2.83;2.20;;;16.90;36.30;;;;;;5113697;27;45125;-81
2022/03/02 10:04:13;;;;;;;4.07;2.40;;;16.90;36.70;;;;;;5128807;27;47465;-82
2022/03/02 10:06:44;;;;;;;4.22;2.50;;;17.00;36.80;;;;;;5126470;27;45260;-82
2022/03/02 10:09:12;;;;;;;3.70;2.28;;;17.00;37.00;;;;;;5130087;27;45189;-81
2022/03/02 10:11:43;;;;;;;4.65;2.50;;;17.00;37.40;;;;;;5126814;27;45466;-81
2022/03/02 10:14:12;;;;;;;2.45;1.90;;;17.00;36.90;;;;;;5121618;27;46291;-82
2022/03/02 10:16:45;;;;;;;4.15;2.13;;;17.00;36.90;;;;;;5125255;27;45455;-81
2022/03/02 10:19:22;;;;;;;3.97;2.00;;;17.10;37.00;;;;;;5115583;27;45456;-82
2022/03/02 10:22:04;;;;;;;3.17;2.10;;;17.10;37.10;;;;;;5125333;27;45572;-81
2022/03/02 10:24:33;;;;;;;4.22;2.10;;;17.10;37.10;;;;;;5118200;27;45502;-82
2022/03/02 10:27:06;;;;;;;3.67;2.25;;;17.10;37.10;;;;;;5130229;27;45156;-82
2022/03/02 10:29:49;;;;;;;3.90;2.00;;;17.20;37.10;;;;;;5124579;27;45246;-82
2022/03/02 10:32:17;;;;;;;4.43;2.20;;;17.20;37.10;;;;;;5117830;27;45385;-81
2022/03/02 10:34:50;;;;;;;3.70;2.08;;;17.20;37.40;;;;;;5115748;27;45191;-82
2022/03/02 10:37:30;;;;;;;3.65;1.90;;;17.20;37.30;;;;;;5118749;27;45368;-82
2022/03/02 10:40:09;;;;;;;3.22;2.20;;;17.20;37.30;;;;;;5109285;27;45224;-82
2022/03/02 10:42:38;;;;;;;2.83;2.03;;;17.20;36.70;;;;;;5116495;27;45535;-82
2022/03/02 10:45:13;;;;;;;3.30;1.92;;;17.20;37.30;;;;;;5125936;27;45232;-82
2022/03/02 10:47:49;;;;;;;4.38;2.47;;;17.20;37.40;;;;;;5114268;27;45499;-82
2022/03/02 10:50:16;;;;;;;4.25;2.63;;;17.20;37.40;;;;;;5125429;27;45359;-82
2022/03/02 10:52:47;;;;;;;4.18;2.67;;;17.20;37.70;;;;;;5126622;27;45188;-82
2022/03/02 10:55:14;;;;;;;3.90;2.30;;;17.20;37.80;;;;;;5125978;27;45608;-82
2022/03/02 10:57:44;;;;;;;4.63;2.67;;;17.20;37.60;;;;;;5125915;27;45437;-82
2022/03/02 11:00:17;;;;;;;6.68;2.42;;;17.20;37.60;;;;;;5132621;27;45171;-83
2022/03/02 11:02:45;;;;;;;3.83;2.42;;;17.20;37.60;;;;;;5125548;27;45260;-81
2022/03/02 11:05:14;;;;;;;4.65;2.30;;;17.30;37.70;;;;;;5125734;27;47436;-84
2022/03/02 11:07:42;;;;;;;3.50;2.45;;;17.30;37.50;;;;;;5117317;27;45443;-81
2022/03/02 11:10:12;;;;;;;3.65;2.40;;;17.20;37.60;;;;;;5126073;27;45313;-86
2022/03/02 11:12:42;;;;;;;3.10;2.47;;;17.20;37.70;;;;;;5115844;27;45422;-85
2022/03/02 11:15:10;;;;;;;3.70;2.40;;;17.20;37.60;;;;;;5128527;27;46205;-83
2022/03/02 11:17:54;;;;;;;3.67;2.33;;;17.20;38.10;;;;;;5107198;27;45155;-83
2022/03/02 11:20:24;;;;;;;3.43;2.30;;;17.20;38.40;;;;;;5109886;27;45507;-84
2022/03/02 11:22:56;;;;;;;3.80;2.03;;;17.10;38.30;;;;;;5127490;27;45347;-84
2022/03/02 11:25:43;;;;;;;3.08;2.05;;;17.10;38.40;;;;;;5125163;27;46961;-85
2022/03/02 11:28:14;;;;;;;2.92;1.98;;;17.10;38.60;;;;;;5124498;27;45292;-86
2022/03/02 11:30:47;;;;;;;3.50;2.30;;;17.10;38.50;;;;;;5111505;27;45132;-85
2022/03/02 11:33:16;;;;;;;3.13;2.00;;;17.10;38.60;;;;;;5111087;27;45234;-84
2022/03/02 11:35:44;;;;;;;3.17;2.25;;;17.00;38.10;;;;;;5106718;27;46267;-84
2022/03/02 11:38:12;;;;;;;3.80;2.25;;;17.10;38.10;;;;;;5118513;27;45302;-84
2022/03/02 11:40:41;;;;;;;3.00;2.10;;;17.00;38.00;;;;;;5119590;27;45436;-78
2022/03/02 11:43:16;;;;;;;5.22;2.20;;;17.00;38.20;;;;;;5119464;27;45269;-78
2022/03/02 11:45:43;;;;;;;7.00;2.72;;;17.00;42.40;;;;;;5125478;27;47379;-80
2022/03/02 11:48:11;;;;;;;7.90;2.17;;;17.10;41.90;;;;;;5124813;27;45312;-82
2022/03/02 11:51:07;;;;;;;8.60;1.92;;;17.10;43.20;;;;;;5130151;27;45248;-82
2022/03/02 11:53:35;;;;;;;10.00;1.80;;;17.10;42.70;;;;;;5118512;27;45360;-83
2022/03/02 11:56:03;;;;;;;9.27;2.42;;;17.10;43.60;;;;;;5125430;27;47390;-83
2022/03/02 11:58:58;;;;;;;6.95;2.20;;;17.00;44.70;;;;;;5119401;27;45150;-82
2022/03/02 12:01:26;;;;;;;5.70;2.28;;;17.10;44.40;;;;;;5125693;27;45266;-82
2022/03/02 12:03:57;;;;;;;4.78;1.88;;;17.00;44.30;;;;;;5123839;27;45368;-82
2022/03/02 12:06:27;;;;;;;5.65;2.00;;;17.00;45.40;;;;;;5123958;27;47191;-83
2022/03/02 12:08:54;;;;;;;6.90;1.90;;;17.00;46.00;;;;;;5128837;27;46566;-82
2022/03/02 12:11:26;;;;;;;4.18;2.00;;;17.10;44.50;;;;;;5122012;27;45346;-82
2022/03/02 12:14:06;;;;;;;3.65;1.80;;;17.00;43.90;;;;;;5125219;27;45817;-82
2022/03/02 12:16:40;;;;;;;4.22;2.22;;;17.00;44.80;;;;;;5122982;27;47071;-83
2022/03/02 12:19:21;;;;;;;3.30;1.95;;;17.00;44.40;;;;;;5122691;27;46449;-83
2022/03/02 12:21:51;;;;;;;2.58;1.70;;;16.90;46.30;;;;;;5117853;27;45209;-83
2022/03/02 12:24:26;;;;;;;4.88;1.70;;;16.90;45.90;;;;;;5118039;27;45225;-83
2022/03/02 12:26:56;;;;;;;3.45;1.90;;;16.90;45.90;;;;;;5125335;27;47363;-83
2022/03/02 12:29:23;;;;;;;3.70;1.73;;;16.90;46.40;;;;;;5127868;27;45328;-83
2022/03/02 12:31:50;;;;;;;3.92;1.70;;;16.90;45.90;;;;;;5126613;27;45233;-83
2022/03/02 12:34:17;;;;;;;3.65;1.73;;;16.90;45.80;;;;;;5128321;27;45341;-83
2022/03/02 12:36:44;;;;;;;2.60;1.70;;;16.90;45.90;;;;;;5116568;27;46980;-83
2022/03/02 12:39:13;;;;;;;5.03;1.88;;;16.90;46.10;;;;;;5122028;27;45104;-83
2022/03/02 12:41:40;;;;;;;2.28;1.63;;;16.90;46.20;;;;;;5122833;27;45366;-84
2022/03/02 12:44:09;;;;;;;2.92;1.67;;;16.90;48.90;;;;;;5121023;27;45293;-83
2022/03/02 12:46:37;;;;;;;2.13;1.52;;;16.90;47.60;;;;;;5125238;27;47805;-83
2022/03/02 12:49:06;;;;;;;2.50;1.65;;;17.00;48.60;;;;;;5120475;27;45621;-83
2022/03/02 12:51:36;;;;;;;3.05;1.63;;;17.00;49.20;;;;;;5127055;27;45373;-82
2022/03/02 12:54:04;;;;;;;4.00;1.52;;;17.00;48.90;;;;;;5121407;27;45203;-82